Abakan Airport
UNAA : now visible

Airfield :











YOU CAN JOIN US ON...

 
LOGIN :

Register | Disclaimer

   EN    FR    IT 

 









Legend :    VFR   Marginal VFR   IFR   Intensive IFR   Very Intensive IFR
Visi :
Ceiling :
>= 8 km
>= 3000ft
5 to 8 km
1000 to 3000 ft
1500m to 5 km
500 to 1000 ft
800 to 1500m
200 to 500 ft
< 800m
< 200 ft
Symbols :   Thunderstorms  Fog  Heavy snow  Heavy precipitations  Wind > 20 kt






- Airport Elevation : 831 ft
- IATA code : ABA


UNAA - Abakan

CURRENT METAR :
  • 191900Z 21003MPS 3000 BR FU NSC M14/M16 Q1008 R20/820255 NOSIG RMK QFE734

EXPIRED METARs :
  • 191830Z 19003MPS 1900 R20/P2000U BR FU NSC M16/M18 Q1007 R20/820255 NOSIG RMK QFE733
  • 191800Z 00000MPS 1500 1400W R02/P2000N BR FU NSC M18/M20 Q1007 R02/820255 NOSIG RMK QFE733
  • 191730Z 00000MPS 1900 1300N R02/P2000N BR FU NSC M18/M20 Q1007 R02/820255 NOSIG RMK QFE733
  • 191700Z 00000MPS 2000 1200N BR FU NSC M17/M19 Q1007 R02/820255 NOSIG RMK QFE733
  • 191630Z 00000MPS 1500 1300N R02/P2000N BR FU NSC M17/M19 Q1007 R02/820255 NOSIG RMK QFE733

TAF TAF UNAA
Valid from the 19 at 18:00 until the 20 at 18:00 UTC


191658Z 1918/2018 29003MPS 3100 BR FU SCT025
TEMPO 1918/2003 1000 BR FU
FM200300 22003G08MPS 9000 SCT015



MET'MAP, your aeronautical weather chart ! - Copyright ORBIFLY December 2007 - Disclaimer

ORBIFLY MET'MAP TEAM :

Programming & Development : Alexandra Zaïnal
Concept & original design : Baudouin d'Aumeries
Assistance for programming : Marc-Olivier Méhu
Technical & hardware support : Manuel Goepfert

Contact : metmap@orbifly.com




SOURCES & CREDITS :

   NOAA       Earth
Advisory